Time;durP1;ratioP1;P1;durP2;ratioP2;P2;SDS_P1;SDS_P2;PMS_P1;PMS_P2;Temp;Humidity;BMP_temperature;BMP_pressure;BME280_temperature;BME280_humidity;BME280_pressure;Samples;Min_cycle;Max_cycle;Signal;HPM_P1;HPM_P2
2022/12/13 06:00:43;;;;;;;25.33;22.80;;;-3.30;97.20;;;;;;1700160;29;20196;-70
2022/12/13 06:01:35;;;;;;;25.42;21.60;;;-3.30;97.20;;;;;;1700761;29;20214;-70
2022/12/13 06:02:25;;;;;;;23.75;21.38;;;-3.30;97.20;;;;;;1699907;29;20200;-70
2022/12/13 06:03:17;;;;;;;22.00;19.80;;;-3.30;97.20;;;;;;1699091;29;20203;-70
2022/12/13 06:04:08;;;;;;;23.15;20.73;;;-3.30;97.20;;;;;;1700640;29;20199;-70
2022/12/13 06:05:00;;;;;;;23.03;20.70;;;-3.30;97.20;;;;;;1706769;29;20198;-70
2022/12/13 06:05:50;;;;;;;23.75;21.45;;;-3.30;97.20;;;;;;1707183;29;20446;-70
2022/12/13 06:06:42;;;;;;;23.37;21.17;;;-3.30;97.20;;;;;;1707096;29;20203;-70
2022/12/13 06:07:33;;;;;;;24.40;21.92;;;-3.30;97.20;;;;;;1707473;29;20210;-70
2022/12/13 06:08:24;;;;;;;23.00;20.73;;;-3.30;97.20;;;;;;1704736;29;20313;-70
2022/12/13 06:09:15;;;;;;;23.58;21.10;;;-3.30;97.20;;;;;;1700880;29;20688;-70
2022/12/13 06:10:08;;;;;;;23.00;20.80;;;-3.30;97.20;;;;;;1700311;29;20683;-70
2022/12/13 06:11:00;;;;;;;24.33;21.92;;;-3.30;97.20;;;;;;1700696;29;20493;-70
2022/12/13 06:11:52;;;;;;;23.63;21.20;;;-3.40;97.20;;;;;;1700262;29;20242;-70
2022/12/13 06:12:43;;;;;;;22.15;19.95;;;-3.40;97.20;;;;;;1695472;29;20203;-70
2022/12/13 06:13:34;;;;;;;24.07;21.70;;;-3.40;97.20;;;;;;1694377;29;20688;-70
2022/12/13 06:14:25;;;;;;;23.38;21.10;;;-3.40;97.20;;;;;;1701272;29;20207;-70
2022/12/13 06:15:17;;;;;;;26.33;23.73;;;-3.40;97.20;;;;;;1707314;29;20212;-70
2022/12/13 06:16:11;;;;;;;24.42;22.13;;;-3.40;97.20;;;;;;1707389;29;20206;-70
2022/12/13 06:17:03;;;;;;;25.60;23.20;;;-3.40;97.20;;;;;;1707212;29;20294;-71
2022/12/13 06:17:54;;;;;;;24.83;22.33;;;-3.40;97.20;;;;;;1707133;29;20214;-70
2022/12/13 06:18:45;;;;;;;24.93;22.43;;;-3.40;97.20;;;;;;1707322;29;20932;-70
2022/12/13 06:19:36;;;;;;;26.65;24.00;;;-3.30;97.20;;;;;;1707366;29;20210;-70
2022/12/13 06:20:28;;;;;;;27.50;24.60;;;-3.30;97.20;;;;;;1700048;29;20207;-70
2022/12/13 06:21:19;;;;;;;27.77;25.08;;;-3.40;97.20;;;;;;1694113;29;20215;-71
2022/12/13 06:22:11;;;;;;;29.67;26.83;;;-3.40;97.20;;;;;;1694351;29;20203;-70
2022/12/13 06:23:01;;;;;;;29.10;26.08;;;-3.40;97.20;;;;;;1694183;29;20216;-70
2022/12/13 06:23:54;;;;;;;27.77;24.87;;;-3.40;97.20;;;;;;1693791;29;20192;-71
2022/12/13 06:24:44;;;;;;;26.20;23.60;;;-3.40;97.20;;;;;;1703987;29;20199;-71
2022/12/13 06:25:36;;;;;;;26.03;23.50;;;-3.40;97.20;;;;;;1707277;29;20691;-71
2022/12/13 06:26:27;;;;;;;25.80;23.05;;;-3.40;97.20;;;;;;1707259;29;20211;-71
2022/12/13 06:27:19;;;;;;;24.43;21.90;;;-3.40;97.20;;;;;;1707253;29;20206;-70
2022/12/13 06:28:09;;;;;;;23.77;21.48;;;-3.40;97.20;;;;;;1707430;29;20298;-71
2022/12/13 06:29:01;;;;;;;23.83;21.43;;;-3.40;97.20;;;;;;1707394;29;20298;-71
2022/12/13 06:29:53;;;;;;;24.08;21.55;;;-3.50;97.20;;;;;;1706594;29;20229;-71
2022/12/13 06:30:44;;;;;;;23.50;21.10;;;-3.50;97.20;;;;;;1707215;29;20262;-70
2022/12/13 06:31:37;;;;;;;24.37;21.77;;;-3.50;97.20;;;;;;1707250;29;20209;-71
2022/12/13 06:32:27;;;;;;;24.02;21.75;;;-3.50;97.20;;;;;;1707434;29;20210;-71
2022/12/13 06:33:20;;;;;;;23.27;21.07;;;-3.50;97.20;;;;;;1707323;29;20213;-70
2022/12/13 06:34:10;;;;;;;23.83;21.45;;;-3.50;97.20;;;;;;1704106;29;20207;-71
2022/12/13 06:35:02;;;;;;;23.63;21.27;;;-3.50;97.20;;;;;;1694433;29;20196;-71
2022/12/13 06:35:56;;;;;;;21.75;19.75;;;-3.50;97.20;;;;;;1693836;29;20215;-70
2022/12/13 06:36:47;;;;;;;23.98;21.48;;;-3.50;97.20;;;;;;1696870;29;20227;-70
2022/12/13 06:37:39;;;;;;;23.73;21.23;;;-3.50;97.20;;;;;;1700674;29;20212;-70
2022/12/13 06:38:30;;;;;;;24.15;21.80;;;-3.50;97.20;;;;;;1700652;29;20673;-70
2022/12/13 06:39:22;;;;;;;22.80;20.50;;;-3.50;97.20;;;;;;1700769;29;20568;-70
2022/12/13 06:40:12;;;;;;;22.90;20.70;;;-3.50;97.20;;;;;;1700250;29;20458;-70
2022/12/13 06:41:09;;;;;;;24.53;22.07;;;-3.50;97.20;;;;;;1700108;29;20387;-70
2022/12/13 06:42:01;;;;;;;22.70;20.35;;;-3.40;97.20;;;;;;1700407;29;20456;-70
2022/12/13 06:42:53;;;;;;;25.05;22.30;;;-3.50;97.20;;;;;;1700065;29;20662;-70
2022/12/13 06:43:46;;;;;;;23.95;21.65;;;-3.40;97.20;;;;;;1700640;29;20218;-70
2022/12/13 06:44:37;;;;;;;28.73;22.55;;;-3.40;97.20;;;;;;1701855;29;20199;-70
2022/12/13 06:45:29;;;;;;;24.23;21.73;;;-3.40;97.20;;;;;;1700431;29;20199;-71
2022/12/13 06:46:20;;;;;;;24.27;21.77;;;-3.40;97.20;;;;;;1700535;29;20207;-70
2022/12/13 06:47:13;;;;;;;25.40;22.17;;;-3.40;97.20;;;;;;1699919;29;20646;-71
2022/12/13 06:48:04;;;;;;;21.75;19.65;;;-3.40;97.20;;;;;;1700403;29;20453;-70
2022/12/13 06:48:56;;;;;;;21.33;19.27;;;-3.40;97.20;;;;;;1700465;29;20658;-71
2022/12/13 06:49:48;;;;;;;22.20;20.10;;;-3.40;97.20;;;;;;1700665;29;20565;-70
2022/12/13 06:50:39;;;;;;;21.77;19.48;;;-3.40;97.20;;;;;;1699832;29;20847;-71
2022/12/13 06:51:30;;;;;;;22.10;19.30;;;-3.40;97.20;;;;;;1700408;29;20203;-71
2022/12/13 06:52:21;;;;;;;22.48;20.23;;;-3.30;97.20;;;;;;1700480;29;20210;-70
2022/12/13 06:53:13;;;;;;;21.40;18.70;;;-3.30;97.20;;;;;;1699585;29;20680;-70
2022/12/13 06:54:05;;;;;;;22.13;19.92;;;-3.30;97.20;;;;;;1700217;29;20214;-71
2022/12/13 06:54:55;;;;;;;21.17;18.95;;;-3.30;97.20;;;;;;1699580;29;20206;-71
2022/12/13 06:55:47;;;;;;;22.27;20.10;;;-3.30;97.20;;;;;;1699944;29;20203;-71
2022/12/13 06:56:39;;;;;;;21.90;19.80;;;-3.30;97.20;;;;;;1699636;29;20457;-73
2022/12/13 06:57:31;;;;;;;22.05;19.63;;;-3.30;97.20;;;;;;1699710;29;20206;-71
2022/12/13 06:58:23;;;;;;;22.73;19.90;;;-3.30;97.20;;;;;;1700494;29;20211;-71
2022/12/13 06:59:13;;;;;;;22.92;20.42;;;-3.20;97.20;;;;;;1700598;29;20235;-70
2022/12/13 07:00:06;;;;;;;22.33;20.13;;;-3.20;97.20;;;;;;1700106;29;20680;-71
2022/12/13 07:01:01;;;;;;;22.67;20.27;;;-3.20;97.20;;;;;;1700554;29;20234;-71
2022/12/13 07:01:53;;;;;;;23.45;20.90;;;-3.20;97.20;;;;;;1700552;29;20207;-71
2022/12/13 07:02:52;;;;;;;22.48;20.05;;;-3.20;97.20;;;;;;1699611;29;20199;-71
2022/12/13 07:03:43;;;;;;;21.90;19.70;;;-3.20;97.20;;;;;;1699926;29;20571;-71
2022/12/13 07:04:35;;;;;;;21.30;19.10;;;-3.20;97.20;;;;;;1699854;29;20235;-71
2022/12/13 07:05:26;;;;;;;22.23;19.83;;;-3.10;97.20;;;;;;1699955;29;20211;-71
2022/12/13 07:06:19;;;;;;;19.60;17.70;;;-3.20;97.20;;;;;;1700553;29;20207;-71
2022/12/13 07:07:12;;;;;;;21.02;18.60;;;-3.10;97.20;;;;;;1699992;29;20207;-71
2022/12/13 07:08:05;;;;;;;22.05;19.75;;;-3.10;97.20;;;;;;1700594;29;20269;-70
2022/12/13 07:08:56;;;;;;;20.88;18.77;;;-3.10;97.20;;;;;;1700435;29;20693;-71
2022/12/13 07:09:48;;;;;;;21.05;19.02;;;-3.10;97.20;;;;;;1700334;29;20206;-71
2022/12/13 07:10:40;;;;;;;20.38;18.30;;;-3.10;97.20;;;;;;1699900;29;20242;-71
2022/12/13 07:11:32;;;;;;;22.67;20.25;;;-3.10;97.20;;;;;;1700362;29;20269;-70
2022/12/13 07:12:24;;;;;;;21.90;19.17;;;-3.10;97.20;;;;;;1700450;29;20203;-71
2022/12/13 07:13:15;;;;;;;21.67;19.50;;;-3.10;97.20;;;;;;1700232;29;20199;-71
2022/12/13 07:14:07;;;;;;;21.90;17.40;;;-3.10;97.20;;;;;;1700422;29;20264;-71
2022/12/13 07:14:58;;;;;;;21.45;19.23;;;-3.10;97.20;;;;;;1700186;29;20453;-71
2022/12/13 07:15:49;;;;;;;21.50;19.20;;;-3.10;97.20;;;;;;1700195;29;20258;-71
2022/12/13 07:16:41;;;;;;;22.20;19.30;;;-3.10;97.20;;;;;;1700277;29;20207;-71
2022/12/13 07:17:33;;;;;;;21.08;18.88;;;-3.10;97.20;;;;;;1700220;29;20818;-71
2022/12/13 07:18:26;;;;;;;22.30;19.30;;;-3.10;97.20;;;;;;1700386;29;20210;-72
2022/12/13 07:19:17;;;;;;;21.10;18.73;;;-3.10;97.20;;;;;;1700564;29;20219;-71
2022/12/13 07:20:10;;;;;;;22.30;19.88;;;-3.10;97.20;;;;;;1699642;29;20221;-72
2022/12/13 07:21:03;;;;;;;20.50;18.30;;;-3.10;97.20;;;;;;1700494;29;20206;-71
2022/12/13 07:21:55;;;;;;;26.02;20.33;;;-3.10;97.20;;;;;;1700352;29;20211;-70
2022/12/13 07:22:48;;;;;;;20.52;18.52;;;-3.10;97.20;;;;;;1693951;29;20212;-70
2022/12/13 07:23:41;;;;;;;20.33;18.30;;;-3.10;97.20;;;;;;1694018;29;20234;-69
2022/12/13 07:24:33;;;;;;;19.73;17.63;;;-3.10;97.20;;;;;;1698538;29;20206;-71
2022/12/13 07:25:24;;;;;;;20.40;18.30;;;-3.10;97.20;;;;;;1700207;29;20199;-70
2022/12/13 07:26:16;;;;;;;19.25;17.17;;;-3.10;97.20;;;;;;1700432;29;20207;-70
2022/12/13 07:27:07;;;;;;;19.10;17.15;;;-3.10;97.20;;;;;;1699935;29;20258;-70
2022/12/13 07:28:00;;;;;;;18.52;16.73;;;-3.00;97.20;;;;;;1700560;29;20214;-71
2022/12/13 07:28:51;;;;;;;18.65;16.73;;;-3.00;97.20;;;;;;1700302;29;20580;-71
2022/12/13 07:29:42;;;;;;;21.38;18.35;;;-3.00;97.20;;;;;;1700474;29;20207;-72
2022/12/13 07:30:36;;;;;;;18.37;16.47;;;-2.90;97.20;;;;;;1699424;29;20238;-71
2022/12/13 07:31:27;;;;;;;23.50;18.05;;;-2.90;97.20;;;;;;1700210;29;20203;-71
2022/12/13 07:32:18;;;;;;;19.45;16.35;;;-2.90;97.20;;;;;;1700380;29;20199;-72
2022/12/13 07:33:10;;;;;;;22.33;18.97;;;-2.90;97.20;;;;;;1700443;29;20211;-71
2022/12/13 07:34:02;;;;;;;19.05;17.05;;;-2.80;97.20;;;;;;1700235;29;20222;-71
2022/12/13 07:34:54;;;;;;;19.50;17.38;;;-2.80;97.20;;;;;;1700408;29;20331;-72
2022/12/13 07:35:44;;;;;;;20.17;17.33;;;-2.70;97.20;;;;;;1700171;29;20196;-70
2022/12/13 07:36:36;;;;;;;21.00;17.50;;;-2.70;97.20;;;;;;1700423;29;20207;-70
2022/12/13 07:37:27;;;;;;;19.80;17.80;;;-2.70;97.20;;;;;;1700123;29;20199;-70
2022/12/13 07:38:18;;;;;;;20.57;18.43;;;-2.60;97.20;;;;;;1700115;29;20209;-69
2022/12/13 07:39:09;;;;;;;21.17;18.67;;;-2.60;97.20;;;;;;1693933;29;20223;-69
2022/12/13 07:40:02;;;;;;;20.95;18.20;;;-2.60;97.20;;;;;;1699122;29;20207;-69
2022/12/13 07:40:55;;;;;;;20.15;18.30;;;-2.60;97.20;;;;;;1698442;29;20230;-69
2022/12/13 07:41:47;;;;;;;23.02;20.77;;;-2.60;97.20;;;;;;1699685;29;20200;-69
2022/12/13 07:42:38;;;;;;;22.42;20.23;;;-2.50;97.20;;;;;;1703148;29;20679;-70
2022/12/13 07:43:31;;;;;;;22.90;20.70;;;-2.50;97.20;;;;;;1702125;29;20210;-69
2022/12/13 07:44:23;;;;;;;23.20;21.05;;;-2.50;97.20;;;;;;1706323;29;20321;-69
2022/12/13 07:45:14;;;;;;;22.63;20.27;;;-2.50;97.20;;;;;;1702482;29;20199;-70
2022/12/13 07:46:06;;;;;;;22.03;20.03;;;-2.40;97.20;;;;;;1699582;29;20310;-70
2022/12/13 07:46:58;;;;;;;20.70;18.70;;;-2.40;97.20;;;;;;1698898;29;21072;-70
2022/12/13 07:47:49;;;;;;;21.80;19.65;;;-2.40;97.20;;;;;;1699596;29;20206;-69
2022/12/13 07:48:41;;;;;;;20.47;18.47;;;-2.30;97.20;;;;;;1699847;29;20206;-70
2022/12/13 07:49:33;;;;;;;20.95;18.75;;;-2.30;97.20;;;;;;1699614;29;20712;-70
2022/12/13 07:50:25;;;;;;;20.80;18.70;;;-2.30;97.20;;;;;;1699444;29;20218;-70
2022/12/13 07:51:15;;;;;;;21.70;19.50;;;-2.30;97.20;;;;;;1700170;29;20260;-70
2022/12/13 07:52:11;;;;;;;24.07;21.80;;;-2.20;97.20;;;;;;1699868;29;20207;-70
2022/12/13 07:53:04;;;;;;;26.67;24.02;;;-2.20;97.20;;;;;;1700469;29;20242;-70
2022/12/13 07:53:57;;;;;;;25.33;22.83;;;-2.10;97.20;;;;;;1700353;29;20211;-70
2022/12/13 07:54:47;;;;;;;23.25;20.95;;;-2.10;97.20;;;;;;1700225;29;20203;-69
2022/12/13 07:55:39;;;;;;;23.63;21.33;;;-2.00;97.20;;;;;;1700473;29;20213;-69
2022/12/13 07:56:30;;;;;;;22.05;19.95;;;-2.00;97.20;;;;;;1700220;29;20226;-69
2022/12/13 07:57:21;;;;;;;23.77;21.30;;;-2.00;97.20;;;;;;1699263;29;20210;-70
2022/12/13 07:58:13;;;;;;;23.00;20.70;;;-1.90;97.20;;;;;;1693797;29;20670;-70
2022/12/13 07:59:05;;;;;;;21.33;19.13;;;-1.90;97.20;;;;;;1697190;29;20207;-70
2022/12/13 07:59:56;;;;;;;22.42;20.20;;;-1.90;97.20;;;;;;1705095;29;20205;-70
2022/12/13 08:00:48;;;;;;;23.10;20.65;;;-1.90;97.20;;;;;;1704651;29;20250;-69
2022/12/13 08:01:39;;;;;;;22.60;20.40;;;-1.90;97.20;;;;;;1703421;29;20673;-70
2022/12/13 08:02:31;;;;;;;21.63;19.43;;;-1.80;97.20;;;;;;1700226;29;20586;-70
2022/12/13 08:03:22;;;;;;;22.60;20.25;;;-1.80;97.20;;;;;;1700408;29;20207;-70
2022/12/13 08:04:14;;;;;;;22.70;20.33;;;-1.80;97.20;;;;;;1700073;29;20199;-70
2022/12/13 08:05:07;;;;;;;24.23;21.83;;;-1.80;97.20;;;;;;1700229;29;20215;-70
2022/12/13 08:06:00;;;;;;;21.77;19.58;;;-1.70;97.20;;;;;;1700113;29;20195;-69
2022/12/13 08:06:52;;;;;;;23.30;20.90;;;-1.60;97.20;;;;;;1699963;29;20203;-70
2022/12/13 08:07:42;;;;;;;21.25;19.15;;;-1.60;97.20;;;;;;1700206;29;20223;-70
2022/12/13 08:08:36;;;;;;;22.57;20.37;;;-1.60;97.20;;;;;;1700205;29;20211;-70
2022/12/13 08:09:28;;;;;;;22.38;19.98;;;-1.50;97.20;;;;;;1699046;29;20215;-70
2022/12/13 08:10:19;;;;;;;21.67;19.65;;;-1.50;97.20;;;;;;1698795;29;20567;-70
2022/12/13 08:11:14;;;;;;;22.40;20.25;;;-1.40;97.20;;;;;;1699381;29;20274;-70
2022/12/13 08:12:06;;;;;;;22.27;19.98;;;-1.30;97.20;;;;;;1699840;29;20729;-70
2022/12/13 08:12:57;;;;;;;21.10;18.20;;;-1.30;97.20;;;;;;1699764;29;20204;-70
2022/12/13 08:13:49;;;;;;;21.55;18.70;;;-1.20;97.20;;;;;;1700081;29;20258;-70
2022/12/13 08:14:39;;;;;;;23.33;20.75;;;-1.20;97.20;;;;;;1699710;29;20211;-70
2022/12/13 08:15:31;;;;;;;22.97;20.50;;;-1.10;97.20;;;;;;1699770;29;20262;-70
2022/12/13 08:16:22;;;;;;;20.52;18.42;;;-1.00;97.20;;;;;;1700402;29;20682;-70
2022/12/13 08:17:14;;;;;;;25.10;19.70;;;-1.00;97.20;;;;;;1699824;29;20654;-70
2022/12/13 08:18:05;;;;;;;19.42;17.42;;;-0.90;97.20;;;;;;1701002;29;20211;-70
2022/12/13 08:18:57;;;;;;;18.30;16.40;;;-0.80;97.20;;;;;;1701306;29;20199;-70
2022/12/13 08:19:48;;;;;;;18.45;15.88;;;-0.70;97.20;;;;;;1699957;29;20222;-70
2022/12/13 08:20:41;;;;;;;17.70;15.27;;;-0.70;97.20;;;;;;1700363;29;20225;-70
2022/12/13 08:21:34;;;;;;;20.52;15.35;;;-0.60;97.20;;;;;;1701062;29;20677;-70
2022/12/13 08:22:25;;;;;;;21.70;15.27;;;-0.50;97.20;;;;;;1701498;29;20223;-71
2022/12/13 08:23:16;;;;;;;16.25;14.55;;;-0.40;97.20;;;;;;1700922;29;20218;-70
2022/12/13 08:24:08;;;;;;;19.03;15.83;;;-0.30;97.20;;;;;;1700919;29;20207;-71
2022/12/13 08:24:59;;;;;;;16.58;14.23;;;-0.20;97.20;;;;;;1701327;29;20207;-70
2022/12/13 08:25:51;;;;;;;18.37;14.67;;;-0.10;97.20;;;;;;1701444;29;20218;-70
2022/12/13 08:26:42;;;;;;;17.60;15.70;;;0.00;97.20;;;;;;1701290;29;20226;-70
2022/12/13 08:27:34;;;;;;;16.63;14.90;;;0.10;97.20;;;;;;1701225;29;20206;-69
2022/12/13 08:28:26;;;;;;;18.70;14.88;;;0.20;97.20;;;;;;1701454;29;20211;-70
2022/12/13 08:29:18;;;;;;;18.90;15.65;;;0.30;97.20;;;;;;1701376;29;20274;-69
2022/12/13 08:30:09;;;;;;;16.80;14.90;;;0.50;97.20;;;;;;1700922;29;20211;-70
2022/12/13 08:31:05;;;;;;;16.95;14.18;;;0.70;97.20;;;;;;1701361;29;20235;-70
2022/12/13 08:31:56;;;;;;;16.73;14.60;;;1.00;97.20;;;;;;1701100;29;20207;-70
2022/12/13 08:32:49;;;;;;;17.30;14.95;;;1.30;97.20;;;;;;1701171;29;20202;-70
2022/12/13 08:33:42;;;;;;;17.95;14.55;;;1.60;97.20;;;;;;1701494;29;20741;-70
2022/12/13 08:34:34;;;;;;;20.35;14.85;;;1.90;97.20;;;;;;1701310;29;20203;-70
2022/12/13 08:35:27;;;;;;;16.83;14.98;;;2.20;97.20;;;;;;1701241;29;20558;-71
2022/12/13 08:36:22;;;;;;;18.73;15.07;;;2.60;97.20;;;;;;1701540;29;20238;-70
2022/12/13 08:37:14;;;;;;;15.95;13.95;;;2.80;97.20;;;;;;1700916;29;20211;-70
2022/12/13 08:38:05;;;;;;;16.80;15.00;;;3.00;97.20;;;;;;1701515;29;20211;-70
2022/12/13 08:39:01;;;;;;;17.43;14.83;;;3.20;97.20;;;;;;1701331;29;20199;-70
2022/12/13 08:39:53;;;;;;;16.60;14.80;;;3.30;97.20;;;;;;1700919;29;20202;-70
2022/12/13 08:40:44;;;;;;;18.30;14.65;;;3.50;97.20;;;;;;1701418;29;20227;-70
2022/12/13 08:41:35;;;;;;;16.45;14.65;;;3.70;97.20;;;;;;1701197;29;20669;-71
2022/12/13 08:42:27;;;;;;;17.90;15.20;;;3.90;97.20;;;;;;1701162;29;20568;-70
2022/12/13 08:43:18;;;;;;;16.13;14.15;;;4.20;97.20;;;;;;1701471;29;20202;-71
2022/12/13 08:44:09;;;;;;;16.63;14.27;;;4.50;97.20;;;;;;1701336;29;20203;-71
2022/12/13 08:45:00;;;;;;;17.25;14.23;;;4.90;97.20;;;;;;1701376;29;20582;-71
2022/12/13 08:45:52;;;;;;;15.00;12.70;;;5.20;97.20;;;;;;1701333;29;20203;-70
2022/12/13 08:46:43;;;;;;;14.95;13.35;;;5.40;97.20;;;;;;1700858;29;20203;-71
2022/12/13 08:47:35;;;;;;;17.60;14.60;;;5.60;97.20;;;;;;1701080;29;20218;-70
2022/12/13 08:48:26;;;;;;;18.30;14.75;;;5.80;97.20;;;;;;1700971;29;20211;-70
2022/12/13 08:49:17;;;;;;;17.00;15.20;;;5.90;97.20;;;;;;1701335;29;20713;-69
2022/12/13 08:50:09;;;;;;;20.58;15.60;;;6.00;97.20;;;;;;1700774;29;20207;-70
2022/12/13 08:51:02;;;;;;;16.15;14.45;;;6.10;97.20;;;;;;1700955;29;20219;-70
2022/12/13 08:51:54;;;;;;;15.60;13.80;;;6.10;97.20;;;;;;1701022;29;20681;-70
2022/12/13 08:52:45;;;;;;;16.35;13.90;;;6.20;97.20;;;;;;1701360;29;20219;-70
2022/12/13 08:53:36;;;;;;;16.98;14.65;;;6.30;97.20;;;;;;1700931;29;20210;-70
2022/12/13 08:54:28;;;;;;;15.40;13.40;;;6.30;97.20;;;;;;1701371;29;20209;-70
2022/12/13 08:55:19;;;;;;;17.83;14.80;;;6.30;97.20;;;;;;1701283;29;20492;-71
2022/12/13 08:56:12;;;;;;;18.07;14.50;;;6.40;97.20;;;;;;1701194;29;20213;-71
2022/12/13 08:57:03;;;;;;;15.48;13.77;;;6.40;97.20;;;;;;1700934;29;20981;-71
2022/12/13 08:57:55;;;;;;;17.27;14.40;;;6.40;97.20;;;;;;1701330;29;20628;-71
2022/12/13 08:58:50;;;;;;;18.70;15.02;;;6.40;97.20;;;;;;1701225;29;20454;-70
2022/12/13 08:59:42;;;;;;;19.15;15.20;;;6.30;97.20;;;;;;1701372;29;20278;-70
2022/12/13 09:00:33;;;;;;;18.00;14.88;;;6.20;97.20;;;;;;1700414;29;20596;-71
2022/12/13 09:01:24;;;;;;;17.02;14.80;;;6.10;97.20;;;;;;1701151;29;20214;-70
2022/12/13 09:02:16;;;;;;;17.00;14.10;;;6.10;97.20;;;;;;1701126;29;20203;-70
2022/12/13 09:03:08;;;;;;;16.55;14.77;;;6.20;97.20;;;;;;1701243;29;20199;-71
2022/12/13 09:03:59;;;;;;;18.35;15.05;;;6.40;97.20;;;;;;1701060;29;20230;-71
2022/12/13 09:04:51;;;;;;;19.48;14.80;;;6.70;97.20;;;;;;1701188;29;20207;-70
2022/12/13 09:05:43;;;;;;;17.50;14.05;;;7.00;97.20;;;;;;1701022;29;20207;-71
2022/12/13 09:06:33;;;;;;;18.25;15.75;;;7.50;97.20;;;;;;1701075;29;20211;-71
2022/12/13 09:07:27;;;;;;;17.33;13.83;;;7.90;97.20;;;;;;1701126;29;20207;-71
2022/12/13 09:08:19;;;;;;;17.75;14.38;;;8.50;97.20;;;;;;1701012;29;20206;-70
2022/12/13 09:09:11;;;;;;;18.10;15.02;;;9.20;97.20;;;;;;1701023;29;20670;-71
2022/12/13 09:10:04;;;;;;;18.73;15.80;;;9.80;97.20;;;;;;1700335;29;20199;-70
2022/12/13 09:10:57;;;;;;;17.55;14.07;;;10.50;97.20;;;;;;1700849;29;20234;-70
2022/12/13 09:11:49;;;;;;;17.60;14.40;;;11.00;97.20;;;;;;1700778;29;20254;-71
2022/12/13 09:12:41;;;;;;;19.05;15.32;;;11.20;97.20;;;;;;1701218;29;20203;-70
2022/12/13 09:13:36;;;;;;;20.35;16.52;;;11.50;97.20;;;;;;1701054;29;20883;-71
2022/12/13 09:14:28;;;;;;;20.73;15.68;;;11.70;97.20;;;;;;1701153;29;20207;-70
2022/12/13 09:15:19;;;;;;;18.98;15.45;;;12.00;97.20;;;;;;1700763;29;20210;-70
2022/12/13 09:16:13;;;;;;;16.30;13.80;;;12.40;96.90;;;;;;1701157;29;20203;-70
2022/12/13 09:17:04;;;;;;;17.55;13.57;;;12.60;96.10;;;;;;1700962;29;20204;-71
2022/12/13 09:17:56;;;;;;;17.90;14.83;;;12.70;95.50;;;;;;1701168;29;20203;-70
2022/12/13 09:18:46;;;;;;;16.98;14.38;;;12.60;95.10;;;;;;1701174;29;20207;-71
2022/12/13 09:19:38;;;;;;;17.53;14.30;;;12.80;94.80;;;;;;1701183;29;20199;-70
2022/12/13 09:20:29;;;;;;;18.40;15.80;;;13.10;94.40;;;;;;1700553;29;20455;-70
2022/12/13 09:21:21;;;;;;;19.37;15.20;;;13.20;93.70;;;;;;1701005;29;20203;-70
2022/12/13 09:22:12;;;;;;;19.83;15.68;;;13.30;93.20;;;;;;1701111;29;20203;-70
2022/12/13 09:23:05;;;;;;;17.77;13.97;;;13.20;92.50;;;;;;1701209;29;20208;-70
2022/12/13 09:23:57;;;;;;;20.63;16.17;;;13.10;92.50;;;;;;1701080;29;20207;-70
2022/12/13 09:24:48;;;;;;;17.73;14.18;;;13.00;92.60;;;;;;1700889;29;20416;-70
2022/12/13 09:25:40;;;;;;;17.83;15.05;;;12.80;92.80;;;;;;1701154;29;20210;-70
2022/12/13 09:26:32;;;;;;;18.08;14.55;;;12.60;92.80;;;;;;1701015;29;20211;-71
2022/12/13 09:27:23;;;;;;;18.98;15.15;;;12.50;93.00;;;;;;1700730;29;20203;-70
2022/12/13 09:28:15;;;;;;;19.58;15.55;;;12.40;93.20;;;;;;1700956;29;20211;-70
2022/12/13 09:29:06;;;;;;;17.30;14.77;;;12.50;93.30;;;;;;1700909;29;20219;-71
2022/12/13 09:29:57;;;;;;;19.20;15.50;;;12.60;93.20;;;;;;1700602;29;20226;-70
2022/12/13 09:30:49;;;;;;;16.15;13.65;;;13.00;93.00;;;;;;1700879;29;20478;-70
2022/12/13 09:31:42;;;;;;;19.55;15.57;;;13.70;92.40;;;;;;1700825;29;20207;-70
2022/12/13 09:32:33;;;;;;;18.00;15.13;;;14.30;91.70;;;;;;1701063;29;20215;-70
2022/12/13 09:33:25;;;;;;;18.35;15.48;;;14.80;90.90;;;;;;1701117;29;20214;-70
2022/12/13 09:34:17;;;;;;;18.80;15.40;;;15.30;90.10;;;;;;1701094;29;20218;-70
2022/12/13 09:35:09;;;;;;;18.20;15.55;;;15.70;89.00;;;;;;1700969;29;20210;-70
2022/12/13 09:36:02;;;;;;;18.23;15.70;;;16.30;88.00;;;;;;1700969;29;20584;-70
2022/12/13 09:36:54;;;;;;;16.33;14.60;;;16.90;87.00;;;;;;1700766;29;20488;-70
2022/12/13 09:37:45;;;;;;;17.65;15.70;;;17.40;85.80;;;;;;1700889;29;20218;-71
2022/12/13 09:38:38;;;;;;;19.20;15.00;;;17.90;84.80;;;;;;1694584;29;20219;-70
2022/12/13 09:39:28;;;;;;;16.80;15.00;;;18.40;83.90;;;;;;1694542;29;20212;-70
2022/12/13 09:40:23;;;;;;;18.80;16.40;;;19.00;82.70;;;;;;1694005;29;20207;-70
2022/12/13 09:41:20;;;;;;;18.60;15.57;;;19.60;81.60;;;;;;1694265;29;20234;-70
2022/12/13 09:42:17;;;;;;;17.52;14.25;;;20.00;80.60;;;;;;1699862;29;20575;-70
2022/12/13 09:43:12;;;;;;;17.73;15.73;;;20.30;79.50;;;;;;1700506;29;20208;-70
2022/12/13 09:44:07;;;;;;;18.88;15.18;;;20.50;78.60;;;;;;1700855;29;20199;-70
2022/12/13 09:45:00;;;;;;;19.30;15.55;;;20.50;78.20;;;;;;1700991;29;20218;-70
2022/12/13 09:45:52;;;;;;;17.15;15.27;;;20.50;77.70;;;;;;1700453;29;20195;-70
2022/12/13 09:46:45;;;;;;;18.50;15.13;;;20.50;77.30;;;;;;1700583;29;20588;-70
2022/12/13 09:47:41;;;;;;;16.80;14.98;;;20.20;76.80;;;;;;1701028;29;20234;-70
2022/12/13 09:48:33;;;;;;;16.83;15.02;;;20.00;76.90;;;;;;1700794;29;20195;-70
2022/12/13 09:49:29;;;;;;;18.05;15.35;;;19.80;77.20;;;;;;1700935;29;20596;-70
2022/12/13 09:50:27;;;;;;;18.67;14.95;;;19.70;77.30;;;;;;1700379;29;20242;-70
2022/12/13 09:51:19;;;;;;;17.70;15.43;;;19.60;77.30;;;;;;1700795;29;20681;-71
2022/12/13 09:52:15;;;;;;;17.15;15.35;;;19.90;77.20;;;;;;1700640;29;20424;-71
2022/12/13 09:53:06;;;;;;;18.60;14.82;;;20.00;76.90;;;;;;1694401;29;20208;-71
2022/12/13 09:54:00;;;;;;;17.42;15.60;;;20.30;76.70;;;;;;1700688;29;20243;-70
2022/12/13 09:54:54;;;;;;;21.00;15.35;;;20.50;76.60;;;;;;1700612;29;20211;-71
2022/12/13 09:55:48;;;;;;;22.30;15.35;;;20.70;76.30;;;;;;1700927;29;20234;-71
2022/12/13 09:56:40;;;;;;;18.15;13.88;;;20.70;75.80;;;;;;1700691;29;20710;-71
2022/12/13 09:57:31;;;;;;;16.08;14.23;;;20.40;75.30;;;;;;1700441;29;20199;-70
2022/12/13 09:58:27;;;;;;;18.20;15.30;;;20.10;75.30;;;;;;1701045;29;20237;-70
2022/12/13 09:59:26;;;;;;;16.92;14.55;;;19.70;75.40;;;;;;1700822;29;20223;-70
2022/12/13 10:00:19;;;;;;;18.15;14.93;;;19.40;75.60;;;;;;1700309;29;20219;-70
2022/12/13 10:01:11;;;;;;;19.55;15.07;;;19.10;76.10;;;;;;1700715;29;20207;-70
2022/12/13 10:02:16;;;;;;;17.13;14.70;;;18.80;76.40;;;;;;1700741;29;20581;-70
2022/12/13 10:03:14;;;;;;;16.63;14.27;;;18.50;76.60;;;;;;1700676;29;20192;-71
2022/12/13 10:04:10;;;;;;;16.80;14.32;;;18.10;77.00;;;;;;1694377;29;20248;-70
2022/12/13 10:05:17;;;;;;;18.83;15.45;;;17.70;77.40;;;;;;1694506;29;20191;-70
2022/12/13 10:06:14;;;;;;;17.40;14.20;;;17.40;77.90;;;;;;1697955;29;20204;-71
2022/12/13 10:07:19;;;;;;;16.63;14.35;;;17.30;78.20;;;;;;1700463;29;20211;-71
2022/12/13 10:08:14;;;;;;;20.35;14.25;;;17.30;78.70;;;;;;1700630;29;20784;-71
2022/12/13 10:09:12;;;;;;;21.98;15.50;;;17.60;79.00;;;;;;1697144;29;20204;-70
2022/12/13 10:10:03;;;;;;;23.67;15.85;;;17.80;78.90;;;;;;1700393;29;20218;-70
2022/12/13 10:10:55;;;;;;;19.15;14.63;;;18.00;78.50;;;;;;1700543;29;20225;-71
2022/12/13 10:11:48;;;;;;;21.33;14.90;;;18.20;78.10;;;;;;1700673;29;20207;-71
2022/12/13 10:12:42;;;;;;;19.90;14.73;;;18.30;77.70;;;;;;1700632;29;20199;-70
2022/12/13 10:13:40;;;;;;;20.50;14.77;;;18.40;77.50;;;;;;1700779;29;20694;-70
2022/12/13 10:14:39;;;;;;;14.80;13.27;;;18.40;77.30;;;;;;1700867;29;20215;-71
2022/12/13 10:15:33;;;;;;;17.80;14.70;;;18.40;77.30;;;;;;1700695;29;20195;-71
2022/12/13 10:16:27;;;;;;;16.88;14.13;;;18.40;77.00;;;;;;1700758;29;20207;-71
2022/12/13 10:17:22;;;;;;;16.35;14.50;;;18.40;77.00;;;;;;1700448;29;20235;-71
2022/12/13 10:18:21;;;;;;;16.65;13.70;;;18.40;77.00;;;;;;1700791;29;20203;-71
2022/12/13 10:19:17;;;;;;;14.25;12.75;;;18.40;76.90;;;;;;1700661;29;20196;-71
2022/12/13 10:20:17;;;;;;;15.80;14.07;;;18.40;76.40;;;;;;1693624;29;20208;-71
2022/12/13 10:21:11;;;;;;;17.80;14.43;;;18.40;76.30;;;;;;1694149;29;20236;-71
2022/12/13 10:22:05;;;;;;;17.33;15.52;;;18.40;76.10;;;;;;1698421;29;20203;-70
2022/12/13 10:22:56;;;;;;;17.98;15.30;;;18.40;76.00;;;;;;1700753;29;20650;-70
2022/12/13 10:23:48;;;;;;;15.32;13.73;;;18.50;76.20;;;;;;1700364;29;20231;-71
2022/12/13 10:24:54;;;;;;;15.82;13.95;;;18.60;76.20;;;;;;1700709;29;20206;-70
2022/12/13 10:25:48;;;;;;;17.08;14.10;;;18.70;76.10;;;;;;1700772;29;20215;-71
2022/12/13 10:26:40;;;;;;;17.23;15.30;;;18.80;75.80;;;;;;1700562;29;20658;-71